Time;durP1;ratioP1;P1;durP2;ratioP2;P2;SDS_P1;SDS_P2;PMS_P1;PMS_P2;Temp;Humidity;BMP_temperature;BMP_pressure;BME280_temperature;BME280_humidity;BME280_pressure;Samples;Min_cycle;Max_cycle;Signal;HPM_P1;HPM_P2
2021/09/03 00:01:10;;;;;;;21.02;9.57;;;15.80;99.90;;;;;;4991717;28;20050;-73
2021/09/03 00:03:36;;;;;;;18.90;10.00;;;15.80;99.90;;;;;;4991634;28;20431;-72
2021/09/03 00:06:02;;;;;;;17.92;9.98;;;15.80;99.90;;;;;;4991699;28;20464;-73
2021/09/03 00:08:27;;;;;;;19.83;10.20;;;15.80;99.90;;;;;;4992024;28;20027;-73
2021/09/03 00:10:53;;;;;;;16.17;9.30;;;15.70;99.90;;;;;;4991420;28;20453;-73
2021/09/03 00:13:19;;;;;;;17.52;10.27;;;15.70;99.90;;;;;;4991670;28;20037;-72
2021/09/03 00:15:45;;;;;;;17.52;10.15;;;15.60;99.90;;;;;;4991488;28;20188;-72
2021/09/03 00:18:11;;;;;;;17.98;10.25;;;15.60;99.90;;;;;;4991649;28;20443;-71
2021/09/03 00:20:36;;;;;;;17.40;9.35;;;15.70;99.90;;;;;;4990441;28;20108;-73
2021/09/03 00:23:02;;;;;;;17.45;10.30;;;15.60;99.90;;;;;;4991343;28;20030;-73
2021/09/03 00:25:28;;;;;;;17.33;9.13;;;15.60;99.90;;;;;;4991370;28;20043;-73
2021/09/03 00:27:54;;;;;;;18.65;10.55;;;15.50;99.90;;;;;;4991484;28;20113;-73
2021/09/03 00:30:19;;;;;;;19.77;9.88;;;15.50;99.90;;;;;;4990231;28;20460;-72
2021/09/03 00:32:45;;;;;;;21.38;10.02;;;15.50;99.90;;;;;;4991732;28;20040;-73
2021/09/03 00:35:11;;;;;;;21.58;10.80;;;15.50;99.90;;;;;;4991354;28;20054;-73
2021/09/03 00:37:37;;;;;;;18.42;10.27;;;15.40;99.90;;;;;;4991210;28;20113;-73
2021/09/03 00:40:05;;;;;;;15.40;9.70;;;15.40;99.90;;;;;;4991309;28;20432;-73
2021/09/03 00:42:30;;;;;;;21.40;10.50;;;15.30;99.90;;;;;;4991360;28;20037;-73
2021/09/03 00:44:56;;;;;;;20.98;9.85;;;15.40;99.90;;;;;;4991595;28;20255;-72
2021/09/03 00:47:22;;;;;;;20.30;10.32;;;15.40;99.90;;;;;;4991342;28;20047;-72
2021/09/03 00:49:47;;;;;;;20.38;9.95;;;15.40;99.90;;;;;;4991114;28;20084;-71
2021/09/03 00:52:13;;;;;;;21.55;9.98;;;15.40;99.90;;;;;;4993570;28;20101;-72
2021/09/03 00:54:39;;;;;;;18.17;9.70;;;15.40;99.90;;;;;;4994786;28;20034;-74
2021/09/03 00:57:05;;;;;;;18.92;9.20;;;15.30;99.90;;;;;;4994991;28;20406;-73
2021/09/03 00:59:31;;;;;;;20.58;10.10;;;15.30;99.90;;;;;;4995439;28;20022;-73
2021/09/03 01:01:56;;;;;;;16.08;9.43;;;15.30;99.90;;;;;;4994879;28;20038;-73
2021/09/03 01:04:22;;;;;;;16.38;8.90;;;15.30;99.90;;;;;;4995030;28;20540;-73
2021/09/03 01:06:48;;;;;;;16.40;9.18;;;15.20;99.90;;;;;;4994833;28;20034;-73
2021/09/03 01:09:13;;;;;;;20.27;9.30;;;15.20;99.90;;;;;;4994738;28;20453;-73
2021/09/03 01:11:39;;;;;;;18.67;10.07;;;15.30;99.90;;;;;;4995082;28;20432;-73
2021/09/03 01:14:05;;;;;;;16.02;9.38;;;15.20;99.90;;;;;;4995036;28;20035;-72
2021/09/03 01:16:30;;;;;;;15.32;9.68;;;15.20;99.90;;;;;;4994800;28;20038;-72
2021/09/03 01:18:58;;;;;;;19.10;9.25;;;15.20;99.90;;;;;;4994595;28;20049;-72
2021/09/03 01:21:24;;;;;;;16.50;9.57;;;15.10;99.90;;;;;;4994137;28;20065;-73
2021/09/03 01:23:50;;;;;;;15.60;9.15;;;15.10;99.90;;;;;;4994860;28;20027;-72
2021/09/03 01:26:15;;;;;;;15.60;8.93;;;15.10;99.90;;;;;;4994256;28;20061;-73
2021/09/03 01:28:41;;;;;;;18.50;9.20;;;15.20;99.90;;;;;;4994339;28;20092;-72
2021/09/03 01:31:07;;;;;;;17.40;9.43;;;15.20;99.90;;;;;;4994265;28;20495;-72
2021/09/03 01:33:32;;;;;;;17.10;9.63;;;15.20;99.90;;;;;;4994256;28;20038;-72
2021/09/03 01:35:58;;;;;;;19.48;9.77;;;15.10;99.90;;;;;;4992987;28;20034;-72
2021/09/03 01:38:24;;;;;;;15.77;9.02;;;15.10;99.90;;;;;;4994615;28;20034;-72
2021/09/03 01:40:50;;;;;;;16.73;9.27;;;15.00;99.90;;;;;;4994147;28;20034;-72
2021/09/03 01:43:15;;;;;;;13.27;8.25;;;15.00;99.90;;;;;;4994205;28;20380;-72
2021/09/03 01:45:41;;;;;;;20.67;9.27;;;15.00;99.90;;;;;;4993877;28;20066;-73
2021/09/03 01:48:07;;;;;;;17.23;8.80;;;14.90;99.90;;;;;;4993889;28;20031;-72
2021/09/03 01:50:33;;;;;;;18.77;8.45;;;14.90;99.90;;;;;;4994603;28;20129;-72
2021/09/03 01:52:58;;;;;;;17.17;9.18;;;14.90;99.90;;;;;;4993936;28;20058;-72
2021/09/03 01:55:24;;;;;;;14.73;8.63;;;14.90;99.90;;;;;;4993947;28;20038;-72
2021/09/03 01:57:50;;;;;;;14.25;8.93;;;14.90;99.90;;;;;;4993971;28;20026;-72
2021/09/03 02:00:16;;;;;;;15.65;8.68;;;14.90;99.90;;;;;;4993822;28;20032;-72
2021/09/03 02:02:42;;;;;;;16.13;9.40;;;14.90;99.90;;;;;;4993395;28;20077;-73
2021/09/03 02:05:09;;;;;;;12.63;8.25;;;14.80;99.90;;;;;;4993830;28;20415;-72
2021/09/03 02:07:35;;;;;;;16.02;8.48;;;14.80;99.90;;;;;;4993822;28;20040;-72
2021/09/03 02:10:03;;;;;;;13.98;9.15;;;14.80;99.90;;;;;;4993537;28;20034;-72
2021/09/03 02:12:29;;;;;;;15.77;8.73;;;14.80;99.90;;;;;;4993497;28;20045;-72
2021/09/03 02:14:54;;;;;;;14.85;8.55;;;14.80;99.90;;;;;;4993766;28;20064;-72
2021/09/03 02:17:20;;;;;;;17.33;8.68;;;14.80;99.90;;;;;;4992388;28;20030;-73
2021/09/03 02:19:45;;;;;;;16.27;8.75;;;14.80;99.90;;;;;;4993128;28;20034;-72
2021/09/03 02:22:11;;;;;;;17.55;10.05;;;14.80;99.90;;;;;;4993305;28;20463;-72
2021/09/03 02:24:36;;;;;;;19.40;8.93;;;14.80;99.90;;;;;;4993487;28;20041;-72
2021/09/03 02:27:02;;;;;;;12.70;7.93;;;14.80;99.90;;;;;;4993337;28;20027;-72
2021/09/03 02:29:28;;;;;;;11.95;8.02;;;14.90;99.90;;;;;;4993880;28;20023;-72
2021/09/03 02:31:54;;;;;;;17.05;8.32;;;14.90;99.90;;;;;;4993101;28;20100;-73
2021/09/03 02:34:21;;;;;;;17.63;9.27;;;14.90;99.90;;;;;;4993071;28;20081;-73
2021/09/03 02:36:47;;;;;;;14.45;8.30;;;14.90;99.90;;;;;;4993081;28;20427;-73
2021/09/03 02:39:13;;;;;;;21.73;9.05;;;14.90;99.90;;;;;;4993162;28;20038;-72
2021/09/03 02:41:38;;;;;;;18.73;9.25;;;14.90;99.90;;;;;;4992475;28;20030;-73
2021/09/03 02:44:04;;;;;;;17.33;8.48;;;14.90;99.90;;;;;;4992923;28;20631;-74
2021/09/03 02:46:30;;;;;;;15.40;8.68;;;14.90;99.90;;;;;;4993019;28;20735;-74
2021/09/03 02:48:55;;;;;;;16.05;8.13;;;14.90;99.90;;;;;;4992742;28;20125;-73
2021/09/03 02:51:21;;;;;;;16.80;9.38;;;14.80;99.90;;;;;;4992632;28;20471;-72
2021/09/03 02:53:47;;;;;;;22.50;9.68;;;14.70;99.90;;;;;;4993283;28;20035;-71
2021/09/03 02:56:12;;;;;;;13.25;8.25;;;14.70;99.90;;;;;;4992823;28;20166;-72
2021/09/03 02:58:38;;;;;;;16.80;8.68;;;14.70;99.90;;;;;;4992734;28;20108;-71
2021/09/03 03:01:03;;;;;;;13.80;9.07;;;14.60;99.90;;;;;;4992736;28;20120;-71
2021/09/03 03:03:29;;;;;;;17.05;8.65;;;14.50;99.90;;;;;;4992597;28;20408;-73
2021/09/03 03:05:54;;;;;;;17.15;9.07;;;14.50;99.90;;;;;;4993057;28;20563;-72
2021/09/03 03:08:20;;;;;;;14.00;8.77;;;14.60;99.90;;;;;;4992712;28;20034;-72
2021/09/03 03:10:46;;;;;;;18.75;9.38;;;14.60;99.90;;;;;;4992518;28;20038;-73
2021/09/03 03:16:06;;;;;;;18.80;9.43;;;14.60;99.90;;;;;;4987453;28;20037;-71
2021/09/03 03:18:33;;;;;;;16.88;8.93;;;14.60;99.90;;;;;;4992318;28;20026;-72
2021/09/03 03:20:59;;;;;;;18.40;8.88;;;14.50;99.90;;;;;;4991587;28;20107;-72
2021/09/03 03:23:24;;;;;;;19.10;8.80;;;14.50;99.90;;;;;;4992836;28;20022;-73
2021/09/03 03:25:50;;;;;;;22.88;9.52;;;14.50;99.90;;;;;;4992325;28;20030;-73
2021/09/03 03:28:16;;;;;;;27.08;10.00;;;14.40;99.90;;;;;;4992230;28;20030;-73
2021/09/03 03:30:41;;;;;;;17.33;9.10;;;14.30;99.90;;;;;;4990825;28;20037;-73
2021/09/03 03:33:07;;;;;;;16.73;9.73;;;14.30;99.90;;;;;;4992094;28;20313;-73
2021/09/03 03:35:32;;;;;;;13.95;9.00;;;14.30;99.90;;;;;;4992400;28;20041;-73
2021/09/03 03:37:58;;;;;;;18.60;10.20;;;14.30;99.90;;;;;;4991939;28;20038;-73
2021/09/03 03:40:24;;;;;;;16.45;9.68;;;14.40;99.90;;;;;;4991746;28;20034;-73
2021/09/03 03:42:49;;;;;;;15.57;9.25;;;14.40;99.90;;;;;;4991859;28;20034;-73
2021/09/03 03:45:15;;;;;;;15.30;8.90;;;14.40;99.90;;;;;;4991632;28;20097;-72
2021/09/03 03:47:41;;;;;;;16.90;9.52;;;14.40;99.90;;;;;;4992466;28;20106;-73
2021/09/03 03:50:07;;;;;;;13.43;8.15;;;14.30;99.80;;;;;;4990886;28;20046;-73
2021/09/03 03:52:33;;;;;;;15.50;8.70;;;14.30;99.90;;;;;;4991739;28;20410;-73
2021/09/03 03:54:59;;;;;;;16.98;9.23;;;14.30;99.90;;;;;;4991585;28;20058;-73
2021/09/03 03:57:24;;;;;;;18.50;9.23;;;14.30;99.80;;;;;;4991672;28;20444;-73
2021/09/03 03:59:50;;;;;;;18.88;9.00;;;14.30;99.80;;;;;;4992108;28;20030;-72
2021/09/03 04:02:15;;;;;;;18.70;8.85;;;14.20;99.70;;;;;;4991870;28;20030;-73
2021/09/03 04:04:41;;;;;;;13.65;8.35;;;14.20;99.70;;;;;;4991759;28;20027;-71
2021/09/03 04:07:06;;;;;;;18.52;8.93;;;14.20;99.70;;;;;;4991678;28;20042;-73
2021/09/03 04:09:32;;;;;;;23.20;8.98;;;14.20;99.70;;;;;;4991551;28;20097;-74
2021/09/03 04:11:58;;;;;;;15.35;8.73;;;14.30;99.80;;;;;;4991432;28;20092;-73
2021/09/03 04:14:24;;;;;;;15.20;9.05;;;14.20;99.70;;;;;;4991944;28;20463;-72
2021/09/03 04:16:49;;;;;;;14.40;7.85;;;14.10;99.70;;;;;;4991462;28;20027;-73
2021/09/03 04:19:15;;;;;;;13.50;8.73;;;14.10;99.80;;;;;;4991531;28;20570;-72
2021/09/03 04:21:41;;;;;;;17.20;9.35;;;14.10;99.70;;;;;;4991160;28;20062;-73
2021/09/03 04:24:07;;;;;;;16.67;8.88;;;14.10;99.80;;;;;;4991482;28;20021;-74
2021/09/03 04:26:32;;;;;;;17.70;8.68;;;14.00;99.70;;;;;;4991166;28;20031;-73
2021/09/03 04:28:58;;;;;;;13.95;8.68;;;14.00;99.80;;;;;;4991299;28;20125;-73
2021/09/03 04:31:24;;;;;;;17.33;9.25;;;14.00;99.80;;;;;;4990085;28;20045;-73
2021/09/03 04:33:49;;;;;;;19.38;8.73;;;14.00;99.80;;;;;;4991384;28;20376;-73
2021/09/03 04:36:15;;;;;;;14.48;8.88;;;14.00;99.80;;;;;;4991250;28;20109;-73
2021/09/03 04:38:40;;;;;;;21.25;8.88;;;14.00;99.80;;;;;;4990427;28;20395;-72
2021/09/03 04:41:06;;;;;;;12.70;8.15;;;13.90;99.80;;;;;;4990251;28;20421;-72
2021/09/03 04:43:31;;;;;;;15.82;8.93;;;13.90;99.80;;;;;;4991199;28;20038;-72
2021/09/03 04:45:57;;;;;;;13.57;8.57;;;13.90;99.90;;;;;;4989932;28;20035;-73
2021/09/03 04:48:23;;;;;;;14.75;8.60;;;13.90;99.90;;;;;;4991126;28;20118;-73
2021/09/03 04:50:48;;;;;;;15.02;9.07;;;13.90;99.90;;;;;;4991447;28;20154;-72
2021/09/03 04:53:14;;;;;;;17.75;9.80;;;13.90;99.90;;;;;;4990941;28;20489;-73
2021/09/03 04:55:40;;;;;;;17.83;10.13;;;13.90;99.90;;;;;;4991018;28;20040;-72
2021/09/03 04:58:05;;;;;;;20.30;9.55;;;13.90;99.80;;;;;;4991045;28;20039;-72
2021/09/03 05:00:31;;;;;;;15.40;9.23;;;13.90;99.80;;;;;;4990860;28;20026;-72
2021/09/03 05:02:57;;;;;;;19.20;10.20;;;14.00;99.80;;;;;;4991275;28;20078;-73
2021/09/03 05:05:22;;;;;;;17.80;10.50;;;14.00;99.70;;;;;;4991083;28;20042;-74
2021/09/03 05:07:48;;;;;;;19.33;10.27;;;13.90;99.70;;;;;;4991002;28;20495;-72
2021/09/03 05:10:14;;;;;;;21.75;10.38;;;13.90;99.80;;;;;;4990818;28;20031;-73
2021/09/03 05:12:40;;;;;;;17.35;9.68;;;13.90;99.80;;;;;;4990823;28;20027;-74
2021/09/03 05:15:15;;;;;;;20.13;10.20;;;13.90;99.80;;;;;;4990819;28;20102;-72
2021/09/03 05:17:50;;;;;;;16.40;9.57;;;13.90;99.80;;;;;;4991366;28;20041;-73
2021/09/03 05:20:17;;;;;;;17.20;9.18;;;14.00;99.80;;;;;;4990411;28;20432;-73
2021/09/03 05:22:43;;;;;;;21.75;10.63;;;13.90;99.70;;;;;;4990723;28;20117;-74
2021/09/03 05:25:09;;;;;;;21.63;11.45;;;13.90;99.80;;;;;;4990678;28;20042;-73
2021/09/03 05:27:36;;;;;;;19.15;10.45;;;13.80;99.90;;;;;;4989848;28;20464;-74
2021/09/03 05:30:02;;;;;;;16.65;8.98;;;13.90;99.90;;;;;;4990850;28;20030;-73
2021/09/03 05:32:28;;;;;;;18.13;10.45;;;13.90;99.80;;;;;;4990892;28;20069;-73
2021/09/03 05:34:57;;;;;;;19.55;11.10;;;13.90;99.90;;;;;;4990506;28;20054;-74
2021/09/03 05:37:22;;;;;;;17.02;9.95;;;14.00;99.90;;;;;;4990414;28;20057;-74
2021/09/03 05:39:48;;;;;;;22.60;9.90;;;14.10;99.90;;;;;;4993605;28;20062;-73
2021/09/03 05:42:14;;;;;;;20.48;10.52;;;14.10;99.90;;;;;;4993903;28;20052;-72
2021/09/03 05:44:40;;;;;;;18.60;10.35;;;14.10;99.90;;;;;;4994054;28;20026;-73
2021/09/03 05:47:05;;;;;;;24.52;10.10;;;14.20;99.90;;;;;;4993819;28;20062;-71
2021/09/03 05:49:31;;;;;;;43.00;12.00;;;14.30;99.80;;;;;;4993690;28;20066;-73
2021/09/03 05:51:57;;;;;;;80.90;14.20;;;14.40;99.80;;;;;;4993627;28;20133;-70
2021/09/03 05:54:22;;;;;;;36.33;11.10;;;14.40;99.90;;;;;;4993795;28;20034;-71
2021/09/03 05:56:48;;;;;;;23.48;10.18;;;14.50;99.90;;;;;;4994560;28;20026;-71
2021/09/03 05:59:13;;;;;;;22.63;9.55;;;14.40;99.90;;;;;;4993993;28;20042;-71
2021/09/03 06:01:39;;;;;;;16.13;9.65;;;14.50;99.90;;;;;;4993892;28;20031;-71
2021/09/03 06:04:05;;;;;;;19.33;9.98;;;14.50;99.90;;;;;;4993736;28;20034;-71
2021/09/03 06:06:30;;;;;;;18.95;9.93;;;14.60;99.90;;;;;;4993593;28;20118;-71
2021/09/03 06:08:56;;;;;;;18.13;10.00;;;14.70;99.90;;;;;;4993842;28;20165;-71
2021/09/03 06:11:25;;;;;;;16.77;10.07;;;14.70;99.90;;;;;;4993362;28;20140;-70
2021/09/03 06:13:52;;;;;;;22.63;11.93;;;14.70;99.90;;;;;;4993347;28;20360;-72
2021/09/03 06:16:18;;;;;;;20.50;11.85;;;14.80;99.90;;;;;;4993524;28;20567;-70
2021/09/03 06:18:47;;;;;;;28.85;12.85;;;14.90;99.90;;;;;;4993231;28;20118;-71
2021/09/03 06:21:12;;;;;;;33.63;13.07;;;15.00;99.90;;;;;;4992984;28;20069;-70
2021/09/03 06:23:38;;;;;;;35.80;14.15;;;15.00;99.90;;;;;;4993683;28;20038;-71
2021/09/03 06:26:04;;;;;;;27.90;13.15;;;15.00;99.90;;;;;;4993184;28;20034;-71
2021/09/03 06:28:29;;;;;;;27.05;13.48;;;15.10;99.90;;;;;;4993087;28;20124;-67
2021/09/03 06:30:55;;;;;;;30.25;12.65;;;15.20;99.90;;;;;;4993015;28;20041;-74
2021/09/03 06:33:20;;;;;;;24.65;13.40;;;15.20;99.90;;;;;;4993123;28;20506;-72
2021/09/03 06:35:46;;;;;;;28.77;13.23;;;15.30;99.90;;;;;;4993558;28;20027;-74
2021/09/03 06:38:12;;;;;;;26.25;14.35;;;15.40;99.90;;;;;;4992887;28;20145;-74
2021/09/03 06:40:37;;;;;;;24.77;13.10;;;15.50;99.90;;;;;;4991887;28;20041;-74
2021/09/03 06:43:03;;;;;;;31.02;15.80;;;15.50;99.90;;;;;;4992785;28;20038;-73
2021/09/03 06:45:28;;;;;;;23.83;14.52;;;15.60;99.90;;;;;;4991648;28;20088;-72
2021/09/03 06:47:54;;;;;;;26.88;15.65;;;15.60;99.90;;;;;;4993234;28;20360;-71
2021/09/03 06:50:19;;;;;;;29.70;15.32;;;15.70;99.90;;;;;;4992209;28;20403;-75
2021/09/03 06:52:45;;;;;;;23.52;14.55;;;15.70;99.90;;;;;;4992632;28;20560;-73
2021/09/03 06:55:11;;;;;;;29.02;16.67;;;15.80;99.90;;;;;;4992827;28;20030;-71
2021/09/03 06:57:40;;;;;;;29.02;16.60;;;15.80;99.90;;;;;;4992627;28;20046;-74
2021/09/03 07:00:07;;;;;;;44.13;17.33;;;15.80;99.90;;;;;;4992407;28;20023;-72
2021/09/03 07:02:32;;;;;;;37.45;19.85;;;15.90;99.90;;;;;;4992799;28;20022;-73
2021/09/03 07:04:58;;;;;;;39.08;18.05;;;15.80;99.90;;;;;;4992272;28;20031;-73
2021/09/03 07:07:24;;;;;;;33.13;17.60;;;15.90;99.90;;;;;;4992179;28;20037;-73
2021/09/03 07:09:50;;;;;;;27.40;16.48;;;15.90;99.90;;;;;;4992147;28;20026;-70
2021/09/03 07:12:15;;;;;;;30.33;17.48;;;16.00;99.90;;;;;;4990686;28;20117;-70
2021/09/03 07:14:41;;;;;;;33.17;17.35;;;16.10;99.90;;;;;;4992627;28;20448;-74
2021/09/03 07:17:07;;;;;;;36.00;18.42;;;16.10;99.90;;;;;;4992194;28;20461;-74
2021/09/03 07:19:36;;;;;;;34.58;18.52;;;16.20;99.90;;;;;;4992068;28;20109;-74
2021/09/03 07:22:03;;;;;;;35.45;19.65;;;16.20;99.90;;;;;;4991493;28;20160;-69
2021/09/03 07:24:29;;;;;;;38.15;19.50;;;16.30;99.90;;;;;;4990564;28;20121;-72
2021/09/03 07:26:55;;;;;;;36.70;20.02;;;16.30;99.90;;;;;;4991179;28;20026;-73
2021/09/03 07:29:21;;;;;;;33.75;18.75;;;16.40;99.90;;;;;;4992151;28;20080;-75
2021/09/03 07:31:47;;;;;;;33.33;18.40;;;16.50;99.90;;;;;;4991813;28;20133;-71
2021/09/03 07:34:12;;;;;;;32.58;17.75;;;16.40;99.90;;;;;;4990862;28;20038;-76
2021/09/03 07:36:38;;;;;;;31.20;16.85;;;16.50;99.90;;;;;;4991883;28;20030;-76
2021/09/03 07:39:04;;;;;;;35.78;17.95;;;16.50;99.90;;;;;;4991588;28;20164;-74
2021/09/03 07:41:29;;;;;;;29.48;16.83;;;16.50;99.90;;;;;;4992500;28;20485;-75
2021/09/03 07:43:55;;;;;;;32.78;16.65;;;16.60;99.90;;;;;;4991779;28;20034;-75
2021/09/03 07:46:21;;;;;;;28.77;16.25;;;16.70;99.90;;;;;;4991510;28;20400;-70
2021/09/03 07:48:46;;;;;;;39.33;17.85;;;16.80;99.90;;;;;;4990600;28;20041;-73
2021/09/03 07:51:13;;;;;;;30.92;18.02;;;16.80;99.90;;;;;;4991654;28;20488;-75
2021/09/03 07:53:38;;;;;;;29.13;18.13;;;16.80;99.90;;;;;;4990807;28;20030;-79
2021/09/03 07:56:04;;;;;;;32.63;17.52;;;16.90;99.90;;;;;;4990247;28;20023;-76
2021/09/03 07:58:30;;;;;;;29.80;17.73;;;17.00;99.90;;;;;;4990392;28;20042;-74
2021/09/03 08:00:56;;;;;;;30.50;16.67;;;17.00;99.90;;;;;;4990819;28;20026;-77
2021/09/03 08:03:21;;;;;;;33.95;16.33;;;17.10;99.90;;;;;;4991357;28;20125;-77
2021/09/03 08:05:47;;;;;;;26.95;16.27;;;17.20;99.90;;;;;;4992616;28;20383;-71
2021/09/03 08:08:13;;;;;;;31.90;16.23;;;17.30;99.90;;;;;;4991437;28;20034;-73
2021/09/03 08:10:39;;;;;;;26.65;15.88;;;17.30;99.80;;;;;;4991303;28;20611;-77
2021/09/03 08:13:06;;;;;;;28.92;16.52;;;17.30;99.90;;;;;;4991565;28;20118;-76
2021/09/03 08:15:33;;;;;;;35.23;18.17;;;17.60;99.90;;;;;;4990527;28;20393;-76
2021/09/03 08:17:59;;;;;;;29.90;16.70;;;17.90;99.40;;;;;;4990185;28;20283;-76
2021/09/03 08:20:25;;;;;;;30.52;16.63;;;18.30;99.10;;;;;;4991235;28;20058;-76
2021/09/03 08:22:51;;;;;;;24.75;14.55;;;18.60;99.30;;;;;;4991194;28;20345;-77
2021/09/03 08:25:19;;;;;;;33.28;16.38;;;18.80;98.50;;;;;;4991007;28;20077;-76
2021/09/03 08:27:46;;;;;;;29.52;16.95;;;19.10;98.30;;;;;;4991678;28;20049;-76
2021/09/03 08:30:12;;;;;;;28.90;16.77;;;20.20;98.70;;;;;;4990069;28;20048;-76
2021/09/03 08:32:37;;;;;;;31.35;16.48;;;21.30;96.50;;;;;;4991453;28;20014;-74
2021/09/03 08:35:03;;;;;;;29.85;15.68;;;22.40;95.80;;;;;;4991013;28;20049;-78
2021/09/03 08:37:29;;;;;;;31.98;16.48;;;23.60;94.50;;;;;;4991128;28;20114;-79
2021/09/03 08:39:54;;;;;;;28.23;16.25;;;24.50;92.60;;;;;;4990876;28;20038;-79
2021/09/03 08:42:21;;;;;;;23.55;14.80;;;25.20;91.10;;;;;;4990790;28;20030;-79
2021/09/03 08:44:49;;;;;;;28.73;15.05;;;25.50;90.40;;;;;;4991292;28;20112;-77
2021/09/03 08:47:14;;;;;;;26.55;13.75;;;26.30;88.20;;;;;;4991181;28;20037;-76
2021/09/03 08:49:42;;;;;;;29.85;14.55;;;26.60;87.30;;;;;;4990762;28;20030;-75
2021/09/03 08:52:07;;;;;;;22.33;13.23;;;27.20;85.80;;;;;;4989753;28;20111;-78
2021/09/03 08:54:33;;;;;;;27.58;13.30;;;27.80;83.60;;;;;;4989766;28;20427;-69
2021/09/03 08:56:58;;;;;;;25.17;13.10;;;28.40;82.50;;;;;;4990736;28;20041;-77
2021/09/03 08:59:24;;;;;;;23.80;12.80;;;29.00;78.50;;;;;;4991509;28;20027;-73
2021/09/03 09:02:08;;;;;;;25.25;12.98;;;28.70;77.50;;;;;;4991022;28;20033;-75
2021/09/03 09:04:43;;;;;;;23.98;12.32;;;28.60;78.40;;;;;;4991172;28;20161;-74
2021/09/03 09:07:10;;;;;;;20.65;12.00;;;29.30;77.10;;;;;;4990855;28;20045;-79
2021/09/03 09:09:44;;;;;;;22.20;11.93;;;30.10;74.10;;;;;;4990758;28;20026;-78
2021/09/03 09:12:12;;;;;;;27.77;12.70;;;30.10;71.10;;;;;;4991653;28;20041;-79
2021/09/03 09:14:58;;;;;;;23.88;11.85;;;30.10;72.00;;;;;;4994162;28;20116;-78
2021/09/03 09:17:37;;;;;;;23.30;11.00;;;30.30;71.90;;;;;;4974145;28;20042;-78
2021/09/03 09:20:09;;;;;;;19.00;10.80;;;30.40;71.20;;;;;;4975033;28;20027;-75
2021/09/03 09:22:58;;;;;;;21.02;10.88;;;30.50;68.30;;;;;;4975048;28;20055;-76
2021/09/03 09:25:29;;;;;;;22.00;11.07;;;30.90;68.40;;;;;;4974970;28;20043;-77
2021/09/03 09:28:12;;;;;;;24.98;11.20;;;31.20;66.50;;;;;;4975128;28;20030;-78
2021/09/03 09:30:41;;;;;;;21.30;11.25;;;31.10;66.30;;;;;;4973655;28;20043;-72
2021/09/03 09:33:16;;;;;;;19.42;10.40;;;31.10;64.80;;;;;;4974586;28;20031;-72
2021/09/03 09:35:49;;;;;;;23.65;11.10;;;30.90;65.70;;;;;;4974778;28;20011;-72
2021/09/03 09:38:18;;;;;;;18.58;9.57;;;31.10;66.40;;;;;;4974636;28;20023;-76
2021/09/03 09:40:47;;;;;;;21.10;10.88;;;31.30;65.40;;;;;;4974662;28;20421;-77
2021/09/03 09:43:43;;;;;;;22.33;10.80;;;31.60;65.20;;;;;;4974506;28;20043;-75
2021/09/03 09:46:09;;;;;;;26.30;11.40;;;31.30;64.40;;;;;;4965264;28;20424;-75
2021/09/03 09:48:57;;;;;;;22.27;9.10;;;31.40;63.10;;;;;;4974268;28;20034;-77
2021/09/03 09:51:41;;;;;;;17.52;9.57;;;31.30;63.00;;;;;;4974382;28;20431;-75
2021/09/03 09:54:08;;;;;;;17.23;9.55;;;31.60;63.00;;;;;;4974267;28;20054;-75
2021/09/03 09:56:39;;;;;;;19.77;8.77;;;31.90;63.20;;;;;;4974885;28;20364;-75
2021/09/03 09:59:07;;;;;;;15.35;8.35;;;31.00;62.00;;;;;;4973024;28;20031;-77
2021/09/03 10:01:34;;;;;;;;;;;31.70;60.50;;;;;;4974604;28;20138;-76
2021/09/03 10:04:12;;;;;;;27.00;9.43;;;31.50;60.60;;;;;;4974077;28;20031;-74
2021/09/03 10:06:40;;;;;;;21.05;8.65;;;31.20;60.40;;;;;;4974042;28;20427;-76
2021/09/03 10:09:08;;;;;;;19.02;9.32;;;31.10;59.90;;;;;;4974088;28;20081;-76
2021/09/03 10:11:39;;;;;;;13.85;7.40;;;31.00;62.10;;;;;;4974195;28;20465;-75
2021/09/03 10:14:06;;;;;;;16.65;8.77;;;32.30;61.50;;;;;;4974003;28;20041;-76
2021/09/03 10:16:32;;;;;;;20.10;8.27;;;33.00;59.10;;;;;;4973821;28;20023;-80
2021/09/03 10:19:01;;;;;;;17.17;8.45;;;33.00;58.70;;;;;;4973723;28;20045;-74
2021/09/03 10:21:28;;;;;;;16.60;9.68;;;33.30;57.60;;;;;;4973416;28;20030;-77
2021/09/03 10:24:14;;;;;;;16.60;8.38;;;33.30;57.70;;;;;;4973470;28;20023;-79
2021/09/03 10:26:45;;;;;;;14.40;8.73;;;33.90;56.00;;;;;;4988842;28;20129;-80
2021/09/03 10:29:18;;;;;;;15.80;8.38;;;34.20;56.60;;;;;;4973656;28;20038;-74
2021/09/03 10:32:06;;;;;;;21.27;8.50;;;34.10;54.10;;;;;;4973563;28;20051;-76
2021/09/03 10:34:44;;;;;;;14.93;8.82;;;34.30;55.40;;;;;;4973641;28;20121;-76
2021/09/03 10:37:16;;;;;;;17.08;9.15;;;34.60;53.80;;;;;;4973578;28;20097;-80
2021/09/03 10:39:43;;;;;;;14.25;8.32;;;32.90;53.70;;;;;;4973560;28;20507;-74
2021/09/03 10:42:09;;;;;;;18.13;9.02;;;34.10;55.20;;;;;;4973217;28;20122;-73
2021/09/03 10:45:03;;;;;;;13.43;7.43;;;33.00;55.00;;;;;;4973972;28;20026;-77
2021/09/03 10:47:33;;;;;;;16.73;8.50;;;32.70;54.10;;;;;;4975493;28;20376;-77
2021/09/03 10:50:09;;;;;;;17.67;8.10;;;30.50;54.50;;;;;;4990452;28;20026;-76
2021/09/03 10:52:34;;;;;;;16.40;8.48;;;31.70;56.50;;;;;;4994716;28;20046;-77
2021/09/03 10:55:00;;;;;;;19.05;10.85;;;33.00;55.30;;;;;;4992570;28;20026;-76
2021/09/03 10:57:25;;;;;;;15.65;8.43;;;32.20;54.60;;;;;;4992660;28;20026;-77
2021/09/03 11:00:17;;;;;;;14.45;8.48;;;32.60;56.00;;;;;;4993129;28;20102;-73
2021/09/03 11:02:42;;;;;;;19.52;8.35;;;32.90;55.00;;;;;;4992674;28;20160;-79
2021/09/03 11:05:12;;;;;;;12.82;7.75;;;32.40;53.90;;;;;;4992563;28;20042;-80
2021/09/03 11:07:43;;;;;;;17.05;7.88;;;31.30;55.30;;;;;;4992711;28;20117;-77
2021/09/03 11:10:20;;;;;;;17.67;8.93;;;32.30;55.20;;;;;;4992626;28;20065;-76
2021/09/03 11:12:56;;;;;;;15.15;8.77;;;32.20;54.90;;;;;;4992327;28;20037;-76
2021/09/03 11:15:21;;;;;;;20.25;8.75;;;32.00;55.20;;;;;;4992106;28;20030;-75
2021/09/03 11:17:47;;;;;;;15.80;7.15;;;29.90;56.80;;;;;;4992988;28;20029;-76
2021/09/03 11:20:14;;;;;;;15.32;8.15;;;30.50;57.90;;;;;;4992351;28;20384;-75
2021/09/03 11:22:41;;;;;;;14.43;7.75;;;30.00;58.10;;;;;;4992266;28;20041;-72
2021/09/03 11:25:07;;;;;;;18.98;8.52;;;29.80;58.80;;;;;;4991931;28;20068;-73
2021/09/03 11:27:35;;;;;;;13.73;8.00;;;28.70;59.70;;;;;;4991442;28;20044;-76
2021/09/03 11:30:09;;;;;;;13.80;7.78;;;28.50;61.30;;;;;;4992123;28;20467;-74
2021/09/03 11:32:37;;;;;;;19.70;7.55;;;28.80;61.10;;;;;;4992185;28;20031;-73
2021/09/03 11:35:04;;;;;;;16.70;9.00;;;29.10;61.30;;;;;;4991305;28;20035;-73
2021/09/03 11:37:48;;;;;;;17.53;8.30;;;29.10;60.90;;;;;;4991761;28;20031;-76
2021/09/03 11:40:23;;;;;;;16.52;8.02;;;28.70;61.80;;;;;;4991745;28;20110;-74
2021/09/03 11:42:51;;;;;;;13.25;7.82;;;27.90;62.90;;;;;;4991693;28;20038;-76
2021/09/03 11:45:20;;;;;;;19.55;10.07;;;27.50;63.90;;;;;;4991906;28;20019;-76
2021/09/03 11:47:49;;;;;;;14.27;8.63;;;27.40;64.50;;;;;;4991947;28;20046;-76
2021/09/03 11:50:19;;;;;;;16.05;8.00;;;27.20;65.20;;;;;;4991604;28;20052;-75
2021/09/03 11:52:45;;;;;;;22.42;9.32;;;26.80;65.60;;;;;;4991493;28;20027;-75
2021/09/03 11:55:14;;;;;;;18.58;9.63;;;26.20;67.10;;;;;;4991520;28;20397;-74
2021/09/03 11:57:54;;;;;;;19.50;8.45;;;26.50;66.90;;;;;;4990231;28;20037;-76
2021/09/03 12:00:21;;;;;;;16.80;8.02;;;26.40;67.30;;;;;;4991467;28;20030;-74
2021/09/03 12:02:49;;;;;;;16.25;7.93;;;26.50;67.00;;;;;;4991955;28;20023;-70
2021/09/03 12:05:16;;;;;;;13.13;7.07;;;26.30;67.40;;;;;;4991363;28;20154;-72
2021/09/03 12:08:22;;;;;;;19.52;8.45;;;26.30;67.40;;;;;;4991448;28;20046;-75
2021/09/03 12:10:56;;;;;;;15.38;6.88;;;26.10;67.40;;;;;;4981299;28;20483;-76
2021/09/03 12:13:26;;;;;;;16.98;9.10;;;26.00;68.10;;;;;;4989155;28;20038;-74
2021/09/03 12:16:06;;;;;;;17.23;8.27;;;25.80;68.10;;;;;;4991536;28;20027;-76
2021/09/03 12:18:34;;;;;;;12.65;6.35;;;25.80;68.30;;;;;;4991570;28;20026;-77
2021/09/03 12:21:11;;;;;;;15.18;6.85;;;25.80;68.00;;;;;;4991177;28;20054;-74
2021/09/03 12:23:40;;;;;;;17.63;6.95;;;25.80;67.50;;;;;;4991909;28;20029;-72
2021/09/03 12:26:11;;;;;;;15.68;6.90;;;25.90;67.60;;;;;;4991322;28;20396;-76
2021/09/03 12:28:38;;;;;;;12.60;6.68;;;25.80;68.10;;;;;;4991552;28;20045;-73
2021/09/03 12:31:06;;;;;;;14.05;6.50;;;25.50;67.90;;;;;;4991129;28;20041;-78
2021/09/03 12:33:32;;;;;;;12.88;6.00;;;25.40;68.00;;;;;;4991307;28;20041;-76
2021/09/03 12:36:04;;;;;;;12.60;6.53;;;25.30;67.70;;;;;;4990299;28;20026;-75
2021/09/03 12:38:43;;;;;;;16.02;6.50;;;25.10;68.80;;;;;;4990561;28;20034;-73